Terminal Aerodrome Forecast
Issued by NWS

Home | Current Version | Previous Version | Text Only | Print | Product List | Glossary On
Versions: 1 2 3 4 5 6 7 8 9 10 11 12 13
000
FTUS44 KJAN 251140
TAFGTR
TAF
KGTR 251140Z 2512/2612 15011KT P6SM OVC009
     FM251600 15014KT 6SM -SHRA VCTS OVC009CB
     FM252100 14015KT P6SM VCTS BKN040CB OVC060
     FM260600 15013KT P6SM OVC015
     FM260800 15011KT 5SM BR OVC007=

USA.gov is the U.S. government's official web portal to all federal, state and local government web resources and services.